Time;durP1;ratioP1;P1;durP2;ratioP2;P2;SDS_P1;SDS_P2;PMS_P1;PMS_P2;Temp;Humidity;BMP_temperature;BMP_pressure;BME280_temperature;BME280_humidity;BME280_pressure;Samples;Min_cycle;Max_cycle;Signal;HPM_P1;HPM_P2
2022/04/16 00:00:32;;;;;;;6.17;3.13;;;;;;;4.32;86.61;101699.69;3549181;81;99203;-81
2022/04/16 00:05:33;;;;;;;4.50;1.83;;;;;;;4.29;86.34;101707.13;3547764;80;98956;-81
2022/04/16 00:10:37;;;;;;;7.83;1.80;;;;;;;4.23;86.28;101710.25;3554490;81;98908;-80
2022/04/16 00:15:38;;;;;;;8.60;2.25;;;;;;;4.16;86.02;101714.73;3550545;81;98443;-80
2022/04/16 00:20:40;;;;;;;5.30;2.30;;;;;;;4.10;86.11;101724.70;3561063;80;98618;-81
2022/04/16 00:25:41;;;;;;;3.70;1.50;;;;;;;3.99;85.86;101726.00;3520546;81;98704;-81
2022/04/16 00:30:43;;;;;;;5.15;1.87;;;;;;;3.85;85.51;101729.25;3560938;80;98927;-81
2022/04/16 00:35:44;;;;;;;6.07;1.93;;;;;;;3.75;85.60;101737.61;3549603;81;99004;-80
2022/04/16 00:40:45;;;;;;;6.77;2.03;;;;;;;3.63;86.14;101744.09;3549652;81;99019;-80
2022/04/16 00:45:47;;;;;;;7.97;1.75;;;;;;;3.50;86.76;101750.31;3527173;81;98518;-80
2022/04/16 00:50:50;;;;;;;6.93;2.07;;;;;;;3.40;87.17;101755.37;3540773;82;98718;-80
2022/04/16 00:55:52;;;;;;;4.40;1.65;;;;;;;3.36;87.72;101754.35;3528430;82;98389;-81
2022/04/16 01:00:53;;;;;;;5.80;1.90;;;;;;;3.34;87.92;101755.17;3541277;81;98593;-79
2022/04/16 01:05:55;;;;;;;5.57;1.90;;;;;;;3.33;87.99;101763.09;3531164;82;99005;-80
2022/04/16 01:10:56;;;;;;;4.60;1.77;;;;;;;3.30;88.04;101757.44;3535543;82;98831;-80
2022/04/16 01:15:57;;;;;;;4.53;1.73;;;;;;;3.29;88.45;101762.06;3537159;82;98988;-81
2022/04/16 01:20:59;;;;;;;5.17;1.73;;;;;;;3.27;88.50;101759.41;3535274;82;25804;-80
2022/04/16 01:26:00;;;;;;;5.13;1.60;;;;;;;3.29;88.57;101758.55;3524939;81;98328;-80
2022/04/16 01:31:00;;;;;;;4.57;1.70;;;;;;;3.29;88.24;101762.63;3537001;80;98600;-80
2022/04/16 01:36:02;;;;;;;6.10;1.77;;;;;;;3.24;88.39;101770.87;3519632;82;98869;-81
2022/04/16 01:41:03;;;;;;;4.57;1.73;;;;;;;3.18;88.38;101779.64;3534211;81;99027;-80
2022/04/16 01:46:04;;;;;;;3.97;1.30;;;;;;;3.11;88.50;101778.42;3554188;80;98817;-80
2022/04/16 01:51:05;;;;;;;4.67;1.80;;;;;;;3.03;88.49;101779.07;3561932;81;25974;-80
2022/04/16 01:56:06;;;;;;;5.63;1.73;;;;;;;2.96;88.68;101794.38;3554684;81;98773;-80
2022/04/16 02:01:08;;;;;;;5.63;1.60;;;;;;;2.91;88.93;101797.73;3562404;81;98407;-80
2022/04/16 02:06:09;;;;;;;4.77;1.77;;;;;;;2.88;89.27;101797.77;3553696;80;98586;-80
2022/04/16 02:11:10;;;;;;;6.85;1.70;;;;;;;2.86;89.56;101788.28;3564550;81;98882;-80
2022/04/16 02:16:11;;;;;;;4.90;1.70;;;;;;;2.81;89.45;101793.25;3554903;78;98511;-80
2022/04/16 02:21:12;;;;;;;8.67;1.80;;;;;;;2.77;89.53;101792.22;3563820;81;26342;-80
2022/04/16 02:26:12;;;;;;;3.98;1.50;;;;;;;2.71;89.35;101794.74;3554661;81;98560;-80
2022/04/16 02:31:14;;;;;;;5.33;1.67;;;;;;;2.65;89.38;101797.80;3562790;81;98270;-79
2022/04/16 02:36:14;;;;;;;7.20;1.63;;;;;;;2.61;89.26;101798.12;3553446;81;98550;-80
2022/04/16 02:41:15;;;;;;;5.67;1.80;;;;;;;2.53;89.63;101803.67;3546534;80;98551;-79
2022/04/16 02:51:36;;;;;;;3.67;1.33;;;;;;;2.42;89.88;101814.41;3524508;82;26375;-80
2022/04/16 02:56:37;;;;;;;4.07;1.83;;;;;;;2.37;89.96;101819.07;3543269;81;98394;-79
2022/04/16 03:01:38;;;;;;;2.97;1.30;;;;;;;2.32;90.17;101826.73;3542501;81;98407;-79
2022/04/16 03:06:38;;;;;;;4.00;2.33;;;;;;;2.26;90.50;101829.25;3522544;82;98667;-79
2022/04/16 03:11:40;;;;;;;5.60;1.40;;;;;;;2.22;90.54;101837.70;3547238;82;98551;-80
2022/04/16 03:21:59;;;;;;;5.50;1.60;;;;;;;2.14;90.95;101832.88;3539853;82;98491;-80
2022/04/16 03:27:00;;;;;;;4.97;1.67;;;;;;;2.07;91.26;101841.92;3534160;82;98566;-79
2022/04/16 03:32:01;;;;;;;5.23;2.13;;;;;;;2.01;91.44;101858.00;3534737;82;98309;-80
2022/04/16 03:37:03;;;;;;;4.70;1.57;;;;;;;1.98;91.79;101863.98;3520793;82;98556;-79
2022/04/16 03:42:05;;;;;;;4.23;1.50;;;;;;;1.93;91.96;101859.98;3541311;80;98938;-79
2022/04/16 03:47:06;;;;;;;3.98;1.95;;;;;;;1.90;92.00;101857.83;3599330;80;98540;-79
2022/04/16 03:52:07;;;;;;;3.63;1.77;;;;;;;1.88;92.40;101868.70;3598440;80;98842;-78
2022/04/16 04:02:29;;;;;;;7.50;3.45;;;;;;;1.79;92.69;101886.69;3605745;80;98310;-79
2022/04/16 04:07:30;;;;;;;5.67;2.30;;;;;;;1.75;92.95;101895.16;3595745;80;98836;-79
2022/04/16 04:12:31;;;;;;;5.33;2.07;;;;;;;1.73;93.10;101901.39;3606011;80;98949;-79
2022/04/16 04:17:33;;;;;;;5.60;2.00;;;;;;;1.67;93.22;101897.92;3598894;80;98515;-78
2022/04/16 04:22:34;;;;;;;6.20;2.30;;;;;;;1.65;93.37;101902.80;3604337;80;98872;-78
2022/04/16 04:27:35;;;;;;;7.10;2.57;;;;;;;1.66;93.30;101910.41;3601366;80;98502;-78
2022/04/16 04:32:36;;;;;;;5.87;2.27;;;;;;;1.66;93.44;101922.09;3615041;79;98343;-79
2022/04/16 04:37:37;;;;;;;9.33;2.03;;;;;;;1.66;93.72;101925.33;3598446;80;98439;-77
2022/04/16 04:42:37;;;;;;;4.23;1.90;;;;;;;1.68;94.19;101931.28;3547792;81;98395;-79
2022/04/16 04:47:39;;;;;;;4.63;1.90;;;;;;;1.69;94.35;101935.08;3533937;82;98545;-79
2022/04/16 04:52:42;;;;;;;4.57;1.83;;;;;;;1.74;94.45;101945.08;3542365;81;98614;-79
2022/04/16 04:57:43;;;;;;;4.00;1.57;;;;;;;1.78;94.72;101952.39;3537229;81;98304;-79
2022/04/16 05:02:47;;;;;;;5.67;2.37;;;;;;;1.82;94.71;101956.17;3539665;81;98093;-78
2022/04/16 05:07:48;;;;;;;8.40;2.10;;;;;;;1.89;94.84;101958.55;3539580;80;98381;-79
2022/04/16 05:12:49;;;;;;;4.87;1.90;;;;;;;1.95;95.16;101971.82;3538313;81;98546;-79
2022/04/16 05:17:50;;;;;;;5.80;2.00;;;;;;;2.02;95.33;101976.37;3534234;81;98988;-79
2022/04/16 05:22:51;;;;;;;6.63;2.23;;;;;;;2.10;95.42;101992.08;3532550;82;98625;-79
2022/04/16 05:27:51;;;;;;;4.43;1.90;;;;;;;2.18;95.65;101990.67;3541221;81;98741;-79
2022/04/16 05:32:53;;;;;;;9.77;2.90;;;;;;;2.37;95.71;102003.81;3537943;82;33229;-79
2022/04/16 05:37:54;;;;;;;5.93;1.70;;;;;;;2.37;95.71;102003.81;3529361;79;98343;-79
2022/04/16 05:42:54;;;;;;;4.67;1.97;;;;;;;2.51;95.97;102001.52;3544043;81;98518;-79
2022/04/16 05:47:56;;;;;;;5.27;1.93;;;;;;;2.75;96.13;102009.72;3562715;79;98731;-79
2022/04/16 05:52:57;;;;;;;5.37;1.90;;;;;;;3.05;96.50;102017.02;3591145;81;98434;-79
2022/04/16 05:57:59;;;;;;;6.53;2.40;;;;;;;3.36;95.66;102007.42;3580616;81;98353;-80
2022/04/16 06:03:00;;;;;;;7.33;2.73;;;;;;;3.59;95.06;102014.74;3595761;80;32321;-79
2022/04/16 06:08:02;;;;;;;5.87;2.00;;;;;;;3.77;94.68;102018.03;3605143;80;98689;-79
2022/04/16 06:13:04;;;;;;;6.58;2.12;;;;;;;3.92;94.34;102023.81;3606007;80;98526;-81
2022/04/16 06:18:08;;;;;;;4.70;1.70;;;;;;;4.09;93.49;102026.86;3587565;80;98860;-80
2022/04/16 06:23:09;;;;;;;5.03;1.87;;;;;;;4.27;93.87;102024.09;3590917;80;98451;-80
2022/04/16 06:28:10;;;;;;;3.97;1.70;;;;;;;4.43;93.31;102034.23;3584172;80;108260;-80
2022/04/16 06:33:11;;;;;;;3.83;1.63;;;;;;;4.50;92.49;102038.73;3591417;80;31699;-80
2022/04/16 06:38:11;;;;;;;6.10;1.93;;;;;;;4.72;92.64;102036.18;3579835;80;98283;-81
2022/04/16 06:43:12;;;;;;;5.23;1.50;;;;;;;4.90;90.97;102040.77;3556356;80;98353;-80
2022/04/16 06:48:13;;;;;;;7.87;1.83;;;;;;;5.13;90.61;102042.55;3562587;80;98511;-80
2022/04/16 06:53:15;;;;;;;5.90;1.60;;;;;;;5.17;89.88;102042.17;3573109;80;98486;-80
2022/04/16 06:58:16;;;;;;;4.78;1.90;;;;;;;5.31;87.67;102043.83;3559313;80;98529;-80
2022/04/16 07:03:18;;;;;;;3.23;1.70;;;;;;;5.38;87.68;102042.86;3564403;80;31617;-81
2022/04/16 07:08:19;;;;;;;3.67;1.67;;;;;;;5.51;86.54;102050.23;3564325;80;98373;-79
2022/04/16 07:13:20;;;;;;;6.53;1.80;;;;;;;5.66;85.10;102066.86;3566770;80;98700;-81
2022/04/16 07:18:21;;;;;;;3.83;1.40;;;;;;;5.73;85.25;102066.70;3581754;81;98592;-80
2022/04/16 07:23:22;;;;;;;4.77;1.90;;;;;;;5.80;84.77;102069.89;3582781;80;99030;-81
2022/04/16 07:28:23;;;;;;;4.17;1.80;;;;;;;5.80;83.72;102068.52;3579359;81;98466;-78
2022/04/16 07:33:29;;;;;;;2.57;1.40;;;;;;;5.91;83.70;102077.30;3586543;81;31732;-79
2022/04/16 07:38:30;;;;;;;2.73;1.07;;;;;;;6.01;83.43;102068.89;3578939;81;98313;-78
2022/04/16 07:43:32;;;;;;;5.90;1.77;;;;;;;6.20;83.54;102077.73;3574850;80;99019;-77
2022/04/16 07:48:33;;;;;;;5.17;1.80;;;;;;;6.46;81.68;102078.23;3517316;82;98601;-80
2022/04/16 07:53:34;;;;;;;4.37;2.23;;;;;;;6.89;82.60;102082.64;3553092;81;98475;-79
2022/04/16 07:58:35;;;;;;;7.00;1.80;;;;;;;7.03;76.92;102090.23;3544092;82;98415;-80
2022/04/16 08:03:36;;;;;;;5.07;1.63;;;;;;;7.13;78.89;102094.87;3559945;80;34897;-80
2022/04/16 08:08:38;;;;;;;3.67;1.73;;;;;;;7.30;78.27;102098.28;3535717;81;98881;-79
2022/04/16 08:13:39;;;;;;;3.20;1.53;;;;;;;7.41;78.90;102099.05;3567737;80;98186;-79
2022/04/16 08:18:40;;;;;;;4.83;1.70;;;;;;;7.56;78.05;102105.48;3565781;80;98545;-80
2022/04/16 08:23:55;;;;;;;4.17;1.93;;;;;;;7.54;77.84;102105.00;3568053;80;98620;-80
2022/04/16 08:28:47;;;;;;;;;;;;;;;7.72;76.49;102103.12;3565436;79;98588;-79
2022/04/16 08:33:49;;;;;;;5.43;2.50;;;;;;;8.03;72.13;102118.39;3575629;81;34883;-79
2022/04/16 08:38:50;;;;;;;5.30;1.82;;;;;;;8.33;74.32;102111.19;3548951;80;98611;-80
2022/04/16 08:43:53;;;;;;;3.97;1.60;;;;;;;8.87;75.80;102110.55;3561401;81;98728;-79
2022/04/16 08:48:55;;;;;;;3.87;1.55;;;;;;;9.25;74.74;102118.31;3562261;80;98823;-79
2022/04/16 08:53:56;;;;;;;4.42;1.35;;;;;;;9.80;74.22;102124.03;3559828;81;99038;-80
2022/04/16 08:58:57;;;;;;;3.07;1.60;;;;;;;9.96;71.74;102125.64;3524309;81;98685;-79
2022/04/16 09:03:58;;;;;;;5.13;1.60;;;;;;;10.26;71.86;102123.16;3565029;81;98722;-79
2022/04/16 09:09:11;;;;;;;4.43;1.80;;;;;;;10.69;69.23;102119.52;3567115;80;98412;-81
2022/04/16 09:14:12;;;;;;;5.35;1.90;;;;;;;10.99;65.30;102118.25;3562706;80;99638;-79
2022/04/16 09:19:21;;;;;;;4.07;1.70;;;;;;;11.43;67.57;102118.84;3560861;79;98598;-80
2022/04/16 09:24:21;;;;;;;3.27;1.60;;;;;;;12.52;69.31;102110.22;3556026;80;98774;-76
2022/04/16 09:29:24;;;;;;;4.20;1.53;;;;;;;13.49;68.65;102115.57;3561155;81;98796;-76
2022/04/16 09:34:25;;;;;;;3.47;1.30;;;;;;;14.29;63.94;102125.07;3548062;81;99267;-78
2022/04/16 09:39:27;;;;;;;4.87;1.50;;;;;;;13.94;62.11;102135.86;3528795;81;30127;-76
2022/04/16 09:44:28;;;;;;;3.92;1.27;;;;;;;14.14;60.42;102131.44;3573688;79;99053;-76
2022/04/16 09:49:33;;;;;;;2.33;0.83;;;;;;;13.70;58.20;102136.05;3584037;81;99169;-78
2022/04/16 09:54:36;;;;;;;4.15;1.52;;;;;;;13.75;58.98;102142.14;3579223;81;99209;-78
2022/04/16 09:59:40;;;;;;;3.62;1.40;;;;;;;13.81;51.71;102144.05;3580723;81;99297;-79
2022/04/16 10:04:42;;;;;;;5.58;1.95;;;;;;;13.49;55.59;102144.61;3572263;80;98809;-77
2022/04/16 10:09:45;;;;;;;4.10;1.40;;;;;;;13.92;53.81;102136.23;3557347;80;31037;-78
2022/04/16 10:15:08;;;;;;;3.33;1.57;;;;;;;14.46;54.64;102149.63;3580125;81;98762;-78
2022/04/16 10:20:17;;;;;;;3.83;1.30;;;;;;;15.03;55.67;102144.12;3581258;80;99130;-77
2022/04/16 10:25:34;;;;;;;4.00;1.57;;;;;;;15.47;48.89;102147.39;3575856;80;99007;-78
2022/04/16 10:30:51;;;;;;;3.00;1.30;;;;;;;14.88;47.87;102169.16;3582846;80;99244;-80
2022/04/16 10:36:09;;;;;;;2.95;1.30;;;;;;;14.75;46.70;102153.23;3578667;80;99161;-80
2022/04/16 10:41:17;;;;;;;5.78;1.67;;;;;;;15.58;51.54;102157.50;3606237;80;98887;-80
2022/04/16 10:46:18;;;;;;;3.17;1.60;;;;;;;15.94;52.89;102154.18;3604296;80;99192;-80
2022/04/16 10:51:22;;;;;;;4.53;1.55;;;;;;;15.94;52.89;102154.18;3606109;80;31752;-79
2022/04/16 10:56:28;;;;;;;3.10;1.32;;;;;;;16.07;49.59;102157.57;3597089;80;99089;-79
2022/04/16 11:01:30;;;;;;;5.05;1.40;;;;;;;16.38;48.53;102149.72;3595132;80;100042;-80
2022/04/16 11:06:35;;;;;;;2.60;1.40;;;;;;;15.98;48.89;102153.62;3590969;80;99429;-79
2022/04/16 11:11:38;;;;;;;2.93;1.60;;;;;;;16.25;49.67;102152.48;3603956;80;99327;-79
2022/04/16 11:16:48;;;;;;;3.52;1.62;;;;;;;16.80;48.89;102150.92;3596169;80;99121;-79
2022/04/16 11:21:47;;;;;;;9.10;1.77;;;;;;;16.47;46.75;102159.20;3608140;80;31615;-80
2022/04/16 11:37:29;;;;;;;4.33;1.47;;;;;;;16.87;47.82;102145.44;3596347;80;99172;-79
2022/04/16 11:42:31;;;;;;;4.22;1.62;;;;;;;16.69;46.37;102154.16;3599490;80;99663;-79
2022/04/16 11:47:36;;;;;;;10.80;4.58;;;;;;;16.36;42.89;102152.66;3578206;80;99006;-80
2022/04/16 11:52:37;;;;;;;5.17;2.33;;;;;;;15.60;44.95;102159.31;3572741;80;99051;-79
2022/04/16 11:57:49;;;;;;;3.85;1.60;;;;;;;15.97;45.62;102154.81;3529262;81;98541;-79
2022/04/16 12:02:56;;;;;;;3.02;1.50;;;;;;;15.75;47.09;102141.73;3572573;80;98562;-80
2022/04/16 12:07:57;;;;;;;4.97;1.62;;;;;;;16.03;46.83;102150.54;3563631;79;99115;-77
2022/04/16 12:13:03;;;;;;;7.10;1.70;;;;;;;15.92;44.50;102146.00;3562196;80;99308;-79
2022/04/16 12:18:15;;;;;;;3.47;1.62;;;;;;;15.55;45.46;102141.60;3572426;80;98821;-80
2022/04/16 12:23:24;;;;;;;2.05;1.40;;;;;;;15.36;45.21;102143.02;3557523;81;98834;-79
2022/04/16 12:28:28;;;;;;;2.67;1.32;;;;;;;15.37;45.93;102136.30;3552559;81;98992;-80
2022/04/16 12:33:28;;;;;;;3.12;1.45;;;;;;;15.89;47.08;102131.45;3553495;81;32029;-81
2022/04/16 12:38:30;;;;;;;4.43;1.50;;;;;;;15.96;46.61;102130.98;3555573;80;98841;-80
2022/04/16 12:43:31;;;;;;;3.70;1.40;;;;;;;15.87;45.63;102126.27;3535452;81;99070;-81
2022/04/16 12:48:32;;;;;;;3.50;1.70;;;;;;;15.69;45.58;102125.18;3552624;81;99603;-80
2022/04/16 12:53:33;;;;;;;2.55;1.20;;;;;;;15.71;45.33;102124.24;3560069;80;98910;-80
2022/04/16 12:58:35;;;;;;;4.00;1.80;;;;;;;15.56;45.84;102090.47;3549350;80;98927;-81
2022/04/16 13:03:36;;;;;;;6.50;1.85;;;;;;;15.94;45.54;102106.97;3564780;81;30815;-79
2022/04/16 13:08:37;;;;;;;3.58;1.10;;;;;;;15.94;45.02;102108.36;3550792;81;98776;-80
2022/04/16 13:13:39;;;;;;;2.55;1.45;;;;;;;15.61;44.43;102111.55;3567595;80;99169;-80
2022/04/16 13:18:40;;;;;;;1.65;1.22;;;;;;;15.43;44.87;102095.97;3558698;81;98869;-80
2022/04/16 13:23:42;;;;;;;4.05;1.62;;;;;;;15.41;45.67;102091.38;3569519;80;98913;-79
2022/04/16 13:28:43;;;;;;;4.83;1.50;;;;;;;15.42;44.89;102092.20;3534135;81;99553;-80
2022/04/16 13:33:44;;;;;;;2.40;1.20;;;;;;;15.25;45.12;102098.17;3572111;80;30541;-81
2022/04/16 13:38:45;;;;;;;3.17;1.47;;;;;;;14.97;44.91;102093.47;3559293;81;98814;-80
2022/04/16 13:43:46;;;;;;;5.57;1.10;;;;;;;15.09;45.09;102078.08;3568219;81;99198;-79
2022/04/16 13:48:47;;;;;;;3.72;1.72;;;;;;;15.12;44.58;102080.92;3535957;81;99214;-80
2022/04/16 13:53:48;;;;;;;2.80;1.47;;;;;;;14.74;43.90;102066.28;3532708;81;99113;-78
2022/04/16 13:58:49;;;;;;;3.53;1.20;;;;;;;14.61;44.82;102062.85;3494670;81;98857;-81
2022/04/16 14:03:51;;;;;;;3.03;1.23;;;;;;;14.51;44.14;102057.09;3506933;82;25873;-81
2022/04/16 14:08:52;;;;;;;1.57;1.00;;;;;;;14.33;43.94;102065.02;3498851;82;99153;-80
2022/04/16 14:13:53;;;;;;;3.47;1.30;;;;;;;14.14;44.32;102062.20;3478163;82;98685;-80
2022/04/16 14:18:53;;;;;;;2.10;1.20;;;;;;;14.11;45.03;102056.59;3501190;81;98790;-81
2022/04/16 14:23:54;;;;;;;4.83;1.27;;;;;;;14.27;46.14;102055.97;3510428;83;98792;-79
2022/04/16 14:28:55;;;;;;;3.55;1.37;;;;;;;14.28;44.61;102043.75;3501222;82;99190;-80
2022/04/16 14:33:56;;;;;;;3.37;1.50;;;;;;;14.16;45.12;102047.41;3510534;82;26346;-79
2022/04/16 14:38:59;;;;;;;5.93;1.20;;;;;;;14.02;44.08;102043.52;3505891;83;98487;-78
2022/04/16 14:44:07;;;;;;;3.65;1.40;;;;;;;14.13;46.36;102040.41;3485285;83;98637;-78
2022/04/16 14:49:10;;;;;;;4.33;1.85;;;;;;;14.10;45.60;102048.86;3553689;81;98923;-78
2022/04/16 14:54:12;;;;;;;2.98;1.37;;;;;;;14.06;44.93;102041.65;3595177;80;98836;-79
2022/04/16 14:59:13;;;;;;;9.70;4.67;;;;;;;13.78;44.03;102043.73;3614988;80;99250;-79
2022/04/16 15:04:14;;;;;;;2.97;1.27;;;;;;;13.35;44.34;102021.16;3596951;80;99094;-78
2022/04/16 15:09:15;;;;;;;2.63;1.20;;;;;;;13.46;45.60;102039.41;3614241;79;29199;-78
2022/04/16 15:14:16;;;;;;;3.90;1.10;;;;;;;13.34;45.09;102033.38;3615576;80;98696;-78
2022/04/16 15:19:18;;;;;;;4.37;1.90;;;;;;;13.23;45.36;102039.22;3620795;80;98764;-78
2022/04/16 15:24:19;;;;;;;7.07;3.00;;;;;;;12.98;45.63;102035.58;3595428;80;99212;-77
2022/04/16 15:29:20;;;;;;;5.73;2.60;;;;;;;12.74;45.27;102043.95;3601128;80;98927;-79
2022/04/16 15:34:21;;;;;;;5.17;1.97;;;;;;;12.55;45.32;102034.96;3602265;80;99197;-78
2022/04/16 15:39:24;;;;;;;5.53;2.33;;;;;;;12.37;45.40;102032.84;3598946;80;33222;-78
2022/04/16 15:44:25;;;;;;;5.33;2.27;;;;;;;12.21;45.93;102028.61;3589050;79;98702;-78
2022/04/16 15:49:29;;;;;;;4.23;2.33;;;;;;;12.17;46.35;102024.15;3596831;80;99047;-80
2022/04/16 15:54:28;;;;;;;3.22;1.22;;;;;;;11.97;46.43;102027.30;3573305;80;98945;-78
2022/04/16 15:59:30;;;;;;;5.47;1.70;;;;;;;11.86;47.05;102018.45;3556361;80;99379;-79
2022/04/16 16:09:50;;;;;;;8.68;2.77;;;;;;;11.57;45.87;102022.26;3597809;80;34901;-79
2022/04/16 16:14:52;;;;;;;3.80;1.20;;;;;;;11.42;46.36;102024.88;3593297;80;99119;-79
2022/04/16 16:19:53;;;;;;;3.53;1.57;;;;;;;11.31;46.54;102021.78;3601706;80;98733;-79
2022/04/16 16:24:54;;;;;;;4.20;1.53;;;;;;;11.18;46.45;102024.28;3587876;80;98957;-78
2022/04/16 16:29:57;;;;;;;2.15;0.82;;;;;;;11.05;46.80;102019.91;3594537;80;98859;-78
2022/04/16 16:34:57;;;;;;;1.23;0.80;;;;;;;11.00;46.74;102024.81;3592882;80;98827;-77
2022/04/16 16:39:58;;;;;;;2.77;1.00;;;;;;;10.90;46.15;102024.68;3568712;80;27131;-79
2022/04/16 16:44:59;;;;;;;4.83;0.93;;;;;;;10.83;46.99;102020.31;3589731;80;98947;-79
2022/04/16 16:50:00;;;;;;;3.53;1.00;;;;;;;10.72;47.52;102024.63;3594620;80;98770;-79
2022/04/16 16:55:02;;;;;;;6.08;2.52;;;;;;;10.61;47.68;102023.45;3590352;80;98836;-79
2022/04/16 17:00:05;;;;;;;3.33;1.30;;;;;;;10.51;48.05;102018.36;3595363;80;99472;-79
2022/04/16 17:05:07;;;;;;;2.47;1.00;;;;;;;10.42;48.37;102022.34;3589484;80;99217;-78
2022/04/16 17:10:10;;;;;;;2.12;0.80;;;;;;;10.29;48.19;102024.78;3590508;80;98785;-78
2022/04/16 17:20:31;;;;;;;2.00;1.00;;;;;;;10.10;49.07;102028.59;3588112;80;98703;-79
2022/04/16 17:25:34;;;;;;;5.43;1.17;;;;;;;9.99;49.18;102037.78;3587337;80;98951;-77
2022/04/16 17:30:35;;;;;;;3.87;1.35;;;;;;;9.87;49.29;102034.14;3614498;80;98450;-75
2022/04/16 17:35:35;;;;;;;2.70;1.00;;;;;;;9.79;49.99;102033.61;3589198;79;99004;-77
2022/04/16 17:40:36;;;;;;;3.47;1.17;;;;;;;9.70;51.07;102043.28;3629465;80;98889;-76
2022/04/16 17:45:43;;;;;;;4.30;1.30;;;;;;;9.60;51.23;102048.36;3620953;80;98368;-78
2022/04/16 17:50:41;;;;;;;4.67;1.37;;;;;;;9.41;51.64;102048.77;3639587;80;98865;-77
2022/04/16 17:55:43;;;;;;;4.28;1.40;;;;;;;9.25;51.81;102055.95;3633402;80;98472;-78
2022/04/16 18:00:45;;;;;;;5.07;1.73;;;;;;;9.07;52.51;102056.33;3640274;80;98540;-77
2022/04/16 18:05:48;;;;;;;3.07;1.40;;;;;;;8.90;52.88;102061.28;3633864;80;98545;-75
2022/04/16 18:10:49;;;;;;;3.50;1.37;;;;;;;8.72;53.06;102065.77;3652359;80;98484;-77
2022/04/16 18:15:51;;;;;;;3.40;1.53;;;;;;;8.53;53.37;102071.59;3647860;80;98410;-77
2022/04/16 18:20:52;;;;;;;3.72;1.35;;;;;;;8.40;54.15;102071.17;3640186;80;98728;-76
2022/04/16 18:25:53;;;;;;;2.80;1.07;;;;;;;8.29;54.59;102078.11;3625880;80;98356;-77
2022/04/16 18:30:54;;;;;;;3.03;1.20;;;;;;;8.22;55.30;102090.69;3606386;80;98831;-78
2022/04/16 18:35:55;;;;;;;4.33;1.33;;;;;;;8.15;56.17;102101.30;3574753;80;98906;-78
2022/04/16 18:40:56;;;;;;;5.27;1.60;;;;;;;8.02;56.61;102096.19;3606014;80;98542;-79
2022/04/16 18:45:59;;;;;;;4.93;1.90;;;;;;;7.86;57.17;102105.98;3605387;80;98667;-77
2022/04/16 18:50:59;;;;;;;6.80;1.77;;;;;;;7.76;57.98;102108.22;3599686;80;98188;-77
2022/04/16 18:56:01;;;;;;;7.07;1.83;;;;;;;7.62;58.49;102108.88;3591885;80;98686;-78
2022/04/16 19:11:43;;;;;;;7.85;3.15;;;;;;;7.14;59.62;102109.39;3589596;80;98950;-78
2022/04/16 19:16:46;;;;;;;10.65;4.05;;;;;;;6.93;60.31;102122.76;3593495;80;98559;-78
2022/04/16 19:21:46;;;;;;;12.40;4.75;;;;;;;6.81;61.31;102127.98;3604049;80;34851;-78
2022/04/16 19:26:48;;;;;;;14.50;5.13;;;;;;;6.68;61.99;102138.44;3588921;80;99212;-79
2022/04/16 19:31:49;;;;;;;10.73;4.13;;;;;;;6.50;62.43;102138.02;3599940;80;99052;-79
2022/04/16 19:36:50;;;;;;;6.80;2.63;;;;;;;6.30;62.16;102133.03;3579050;80;99174;-78
2022/04/16 19:41:51;;;;;;;10.67;4.30;;;;;;;6.18;62.35;102134.66;3600430;78;99114;-79
2022/04/16 19:46:52;;;;;;;16.77;5.83;;;;;;;6.07;62.61;102135.99;3563714;80;99052;-79
2022/04/16 19:51:52;;;;;;;15.10;5.30;;;;;;;5.98;62.16;102134.53;3584959;80;32629;-79
2022/04/16 19:56:53;;;;;;;12.93;5.30;;;;;;;5.92;62.66;102142.59;3577441;81;98603;-79
2022/04/16 20:01:55;;;;;;;12.57;4.23;;;;;;;5.87;62.81;102145.42;3576800;80;98546;-80
2022/04/16 20:06:58;;;;;;;7.67;3.23;;;;;;;5.82;63.38;102148.80;3565781;80;98639;-79
2022/04/16 20:11:59;;;;;;;8.60;3.37;;;;;;;5.71;63.63;102158.27;3558230;80;98419;-80
2022/04/16 20:17:00;;;;;;;9.23;3.40;;;;;;;5.65;64.39;102152.11;3556669;80;98546;-79
2022/04/16 20:22:01;;;;;;;9.73;3.57;;;;;;;5.55;64.40;102161.03;3537314;80;33783;-79
2022/04/16 20:27:02;;;;;;;9.10;3.63;;;;;;;5.42;64.36;102162.66;3551100;80;98442;-79
2022/04/16 20:32:05;;;;;;;10.73;3.67;;;;;;;5.32;64.41;102160.10;3583245;81;98792;-80
2022/04/16 20:37:05;;;;;;;10.13;3.73;;;;;;;5.22;64.56;102165.73;3577816;81;99044;-78
2022/04/16 20:47:25;;;;;;;9.70;3.70;;;;;;;5.09;64.37;102165.69;3575653;81;98736;-79
2022/04/16 20:57:46;;;;;;;13.08;4.62;;;;;;;4.86;64.41;102158.44;3579873;80;98277;-79
2022/04/16 21:02:47;;;;;;;14.40;5.33;;;;;;;4.70;64.94;102161.14;3582373;80;98521;-79
2022/04/16 21:07:49;;;;;;;14.07;5.13;;;;;;;4.55;65.24;102160.81;3578309;81;98875;-79
2022/04/16 21:12:50;;;;;;;10.03;4.47;;;;;;;4.43;65.79;102157.69;3583494;80;99176;-79
2022/04/16 21:17:51;;;;;;;8.47;3.67;;;;;;;4.30;66.00;102161.69;3576548;81;99198;-78
2022/04/16 21:22:56;;;;;;;9.57;3.20;;;;;;;4.20;66.54;102177.64;3581480;81;98873;-79
2022/04/16 21:27:57;;;;;;;8.00;3.03;;;;;;;4.13;67.11;102173.10;3578342;81;98404;-79
2022/04/16 21:32:58;;;;;;;9.90;3.00;;;;;;;4.06;66.91;102178.64;3582256;80;98649;-79
2022/04/16 21:38:02;;;;;;;7.50;2.67;;;;;;;3.94;66.75;102177.68;3573607;80;98733;-79
2022/04/16 21:43:03;;;;;;;8.87;3.17;;;;;;;3.82;66.41;102173.77;3580550;80;98958;-79
2022/04/16 21:48:05;;;;;;;11.53;4.87;;;;;;;3.72;66.62;102186.13;3572728;80;98806;-79
2022/04/16 21:53:07;;;;;;;11.60;5.90;;;;;;;3.68;67.17;102189.98;3559927;81;99089;-79
2022/04/16 21:58:08;;;;;;;13.93;4.90;;;;;;;3.62;67.54;102193.03;3575876;81;98692;-79
2022/04/16 22:03:10;;;;;;;12.70;5.27;;;;;;;3.55;67.65;102200.17;3582163;81;26035;-79
2022/04/16 22:08:12;;;;;;;12.40;4.40;;;;;;;3.43;68.09;102187.50;3574889;81;99070;-79
2022/04/16 22:13:14;;;;;;;18.00;7.95;;;;;;;3.30;67.86;102200.95;3584588;80;98717;-78
2022/04/16 22:18:15;;;;;;;14.05;6.22;;;;;;;3.21;68.34;102195.86;3576010;81;99090;-78
2022/04/16 22:23:16;;;;;;;10.47;3.63;;;;;;;3.11;68.52;102200.84;3582702;81;98753;-79
2022/04/16 22:28:17;;;;;;;9.20;2.97;;;;;;;3.03;68.99;102195.20;3575217;81;98850;-79
2022/04/16 22:33:20;;;;;;;8.87;3.30;;;;;;;2.91;70.26;102194.75;3585818;81;32481;-78
2022/04/16 22:43:40;;;;;;;8.70;2.75;;;;;;;2.60;71.29;102192.79;3582932;81;98856;-79
2022/04/16 22:48:43;;;;;;;7.67;2.67;;;;;;;2.57;71.46;102188.47;3577082;81;99011;-79
2022/04/16 22:53:44;;;;;;;8.55;3.33;;;;;;;2.56;71.32;102186.28;3582595;80;99070;-78
2022/04/16 22:58:45;;;;;;;8.23;2.87;;;;;;;2.51;72.30;102189.59;3576139;81;98591;-79
2022/04/16 23:03:46;;;;;;;9.57;2.90;;;;;;;2.47;72.58;102173.01;3575737;81;32379;-79
2022/04/16 23:08:47;;;;;;;9.68;3.72;;;;;;;2.41;72.52;102166.55;3576329;81;98661;-79
2022/04/16 23:13:48;;;;;;;9.40;3.00;;;;;;;2.34;73.02;102170.92;3582301;80;98756;-79
2022/04/16 23:18:49;;;;;;;9.75;3.10;;;;;;;2.16;73.28;102179.72;3576972;81;98535;-78
2022/04/16 23:23:50;;;;;;;8.93;3.93;;;;;;;2.07;73.96;102172.44;3582271;81;99000;-79
2022/04/16 23:28:52;;;;;;;8.07;3.57;;;;;;;1.97;74.69;102166.47;3570954;81;98433;-79
2022/04/16 23:33:53;;;;;;;10.20;3.63;;;;;;;1.95;74.66;102162.41;3580311;81;32445;-78
2022/04/16 23:38:54;;;;;;;9.67;3.33;;;;;;;1.91;75.23;102165.44;3575759;81;98839;-78
2022/04/16 23:49:15;;;;;;;10.20;3.40;;;;;;;1.81;75.22;102170.33;3581209;81;98795;-79
2022/04/16 23:54:17;;;;;;;9.77;4.07;;;;;;;1.81;76.32;102176.33;3584565;81;98758;-79
2022/04/16 23:59:18;;;;;;;9.07;3.23;;;;;;;1.80;76.26;102176.86;3591127;81;98870;-79
